createdAt,value
2023-03-26T00:01:19.250Z,100.00
2023-03-26T00:03:47.089Z,100.00
2023-03-26T00:06:16.697Z,100.00
2023-03-26T00:08:45.792Z,100.00
2023-03-26T00:11:15.530Z,100.00
2023-03-26T00:13:43.891Z,100.00
2023-03-26T00:16:16.434Z,100.00
2023-03-26T00:18:43.652Z,100.00
2023-03-26T00:21:16.052Z,100.00
2023-03-26T00:23:43.687Z,100.00
2023-03-26T00:26:11.133Z,100.00
2023-03-26T00:28:40.563Z,100.00
2023-03-26T00:31:10.754Z,100.00
2023-03-26T00:33:38.564Z,100.00
2023-03-26T00:36:10.087Z,100.00
2023-03-26T00:38:39.092Z,100.00
2023-03-26T00:41:17.661Z,100.00
2023-03-26T00:43:49.269Z,100.00
2023-03-26T00:46:17.624Z,100.00
2023-03-26T00:48:46.152Z,100.00
2023-03-26T00:51:15.509Z,100.00
2023-03-26T00:53:44.250Z,100.00
2023-03-26T00:56:11.439Z,100.00
2023-03-26T00:58:38.146Z,100.00
2023-03-26T01:01:13.790Z,100.00
2023-03-26T01:03:45.755Z,100.00
2023-03-26T01:06:28.478Z,100.00
2023-03-26T01:09:00.067Z,100.00
2023-03-26T01:11:29.764Z,100.00
2023-03-26T01:14:00.988Z,100.00
2023-03-26T01:16:33.180Z,100.00
2023-03-26T01:19:00.469Z,100.00
2023-03-26T01:21:30.396Z,100.00
2023-03-26T01:23:59.927Z,100.00
2023-03-26T01:26:49.339Z,100.00
2023-03-26T01:29:36.055Z,100.00
2023-03-26T01:32:14.621Z,100.00
2023-03-26T01:34:51.829Z,100.00
2023-03-26T01:37:37.916Z,100.00
2023-03-26T01:40:13.105Z,100.00
2023-03-26T01:42:48.013Z,100.00
2023-03-26T01:45:23.741Z,100.00
2023-03-26T01:47:50.512Z,100.00
2023-03-26T01:50:17.251Z,100.00
2023-03-26T01:52:43.772Z,100.00
2023-03-26T01:55:11.754Z,100.00
2023-03-26T01:57:44.285Z,100.00
2023-03-26T02:00:18.044Z,100.00
2023-03-26T02:02:55.122Z,100.00
2023-03-26T02:05:43.999Z,100.00
2023-03-26T02:08:22.671Z,100.00
2023-03-26T02:10:54.918Z,100.00
2023-03-26T02:13:21.952Z,100.00
2023-03-26T02:16:00.112Z,100.00
2023-03-26T02:18:36.116Z,100.00
2023-03-26T02:21:10.918Z,100.00
2023-03-26T02:23:37.705Z,100.00
2023-03-26T02:26:09.233Z,100.00
2023-03-26T02:28:36.476Z,100.00
2023-03-26T02:31:03.497Z,100.00
2023-03-26T02:33:30.554Z,100.00
2023-03-26T02:36:02.411Z,100.00
2023-03-26T02:38:33.686Z,100.00
2023-03-26T02:41:00.583Z,100.00
2023-03-26T02:43:27.124Z,100.00
2023-03-26T02:45:53.978Z,100.00
2023-03-26T02:48:20.957Z,100.00
2023-03-26T02:50:50.182Z,100.00
2023-03-26T02:53:17.245Z,100.00
2023-03-26T02:55:43.728Z,100.00
2023-03-26T02:58:12.207Z,100.00
2023-03-26T03:00:38.705Z,100.00
2023-03-26T03:03:07.480Z,100.00
2023-03-26T03:05:34.310Z,100.00
2023-03-26T03:08:00.888Z,100.00
2023-03-26T03:10:28.655Z,100.00
2023-03-26T03:12:55.260Z,100.00
2023-03-26T03:15:21.688Z,100.00
2023-03-26T03:17:48.233Z,100.00
2023-03-26T03:20:15.404Z,100.00
2023-03-26T03:22:41.997Z,100.00
2023-03-26T03:25:14.169Z,100.00
2023-03-26T03:27:42.712Z,100.00
2023-03-26T03:30:10.998Z,100.00
2023-03-26T03:32:37.603Z,100.00
2023-03-26T03:35:04.633Z,100.00
2023-03-26T03:37:31.231Z,100.00
2023-03-26T03:39:57.729Z,100.00
2023-03-26T03:42:24.470Z,100.00
2023-03-26T03:44:51.401Z,100.00
2023-03-26T03:47:17.905Z,100.00
2023-03-26T03:49:44.305Z,100.00
2023-03-26T03:52:10.780Z,100.00
2023-03-26T03:54:37.694Z,100.00
2023-03-26T03:57:04.219Z,100.00
2023-03-26T03:59:30.657Z,100.00
2023-03-26T04:01:57.053Z,100.00
2023-03-26T04:04:24.645Z,100.00
2023-03-26T04:06:52.426Z,100.00
2023-03-26T04:09:19.457Z,100.00
2023-03-26T04:11:46.028Z,100.00
2023-03-26T04:14:12.457Z,100.00
2023-03-26T04:16:38.880Z,100.00
2023-03-26T04:19:05.290Z,100.00
2023-03-26T04:21:32.053Z,100.00
2023-03-26T04:23:58.572Z,100.00
2023-03-26T04:26:25.023Z,100.00
2023-03-26T04:28:55.172Z,100.00
2023-03-26T04:31:29.084Z,100.00
2023-03-26T04:34:01.435Z,100.00
2023-03-26T04:36:32.101Z,100.00
2023-03-26T04:39:02.885Z,100.00
2023-03-26T04:41:30.179Z,100.00
2023-03-26T04:43:56.825Z,100.00
2023-03-26T04:46:23.850Z,100.00
2023-03-26T04:48:54.574Z,100.00
2023-03-26T04:51:25.416Z,100.00
2023-03-26T04:53:54.243Z,100.00
2023-03-26T04:56:49.187Z,100.00
2023-03-26T04:59:20.190Z,100.00
2023-03-26T05:01:46.726Z,100.00
2023-03-26T05:04:13.786Z,100.00
2023-03-26T05:06:41.733Z,100.00
2023-03-26T05:09:10.675Z,100.00
2023-03-26T05:11:37.532Z,100.00
2023-03-26T05:14:05.937Z,100.00
2023-03-26T05:16:32.553Z,100.00
2023-03-26T05:18:59.434Z,100.00
2023-03-26T05:21:25.879Z,100.00
2023-03-26T05:23:52.760Z,100.00
2023-03-26T05:26:19.683Z,100.00
2023-03-26T05:28:46.235Z,100.00
2023-03-26T05:31:12.686Z,100.00
2023-03-26T05:33:39.232Z,100.00
2023-03-26T05:36:14.033Z,100.00
2023-03-26T05:38:40.971Z,100.00
2023-03-26T05:41:09.940Z,100.00
2023-03-26T05:43:36.696Z,100.00
2023-03-26T05:46:04.000Z,100.00
2023-03-26T05:48:30.746Z,100.00
2023-03-26T05:50:58.500Z,100.00
2023-03-26T05:53:27.040Z,100.00
2023-03-26T05:55:57.813Z,100.00
2023-03-26T05:58:33.144Z,100.00
2023-03-26T06:01:05.470Z,100.00
2023-03-26T06:03:37.867Z,100.00
2023-03-26T06:06:09.256Z,100.00
2023-03-26T06:08:36.193Z,100.00
2023-03-26T06:11:05.482Z,100.00
2023-03-26T06:13:31.907Z,100.00
2023-03-26T06:15:58.398Z,100.00
2023-03-26T06:18:26.036Z,100.00
2023-03-26T06:20:53.288Z,100.00
2023-03-26T06:23:20.041Z,100.00
2023-03-26T06:25:46.661Z,100.00
2023-03-26T06:28:13.556Z,100.00
2023-03-26T06:30:40.303Z,100.00
2023-03-26T06:33:07.024Z,100.00
2023-03-26T06:35:33.681Z,100.00
2023-03-26T06:38:00.688Z,100.00
2023-03-26T06:40:27.193Z,100.00
2023-03-26T06:43:07.562Z,100.00
2023-03-26T06:45:38.048Z,100.00
2023-03-26T06:48:05.347Z,100.00
2023-03-26T06:50:32.771Z,100.00
2023-03-26T06:52:59.353Z,100.00
2023-03-26T06:55:25.996Z,100.00
2023-03-26T06:57:54.424Z,100.00
2023-03-26T07:00:21.439Z,100.00
2023-03-26T07:02:47.908Z,100.00
2023-03-26T07:05:15.610Z,100.00
2023-03-26T07:07:46.817Z,100.00
2023-03-26T07:10:14.315Z,100.00
2023-03-26T07:12:42.380Z,100.00
2023-03-26T07:15:10.198Z,100.00
2023-03-26T07:17:37.041Z,100.00
2023-03-26T07:20:08.067Z,100.00
2023-03-26T07:22:35.328Z,100.00
2023-03-26T07:25:02.373Z,100.00
2023-03-26T07:27:36.196Z,100.00
2023-03-26T07:30:12.358Z,100.00
2023-03-26T07:33:03.579Z,100.00
2023-03-26T07:35:48.581Z,100.00
2023-03-26T07:38:40.290Z,100.00
2023-03-26T07:41:19.801Z,100.00
2023-03-26T07:44:04.589Z,100.00
2023-03-26T07:46:34.448Z,100.00
2023-03-26T07:49:01.820Z,100.00
2023-03-26T07:51:29.285Z,100.00
2023-03-26T07:53:57.600Z,100.00
2023-03-26T07:56:58.648Z,100.00
2023-03-26T07:59:51.530Z,100.00
2023-03-26T08:02:43.418Z,100.00
2023-03-26T08:05:21.581Z,100.00
2023-03-26T08:08:23.124Z,100.00
2023-03-26T08:11:09.345Z,100.00
2023-03-26T08:14:06.899Z,100.00
2023-03-26T08:16:41.146Z,100.00
2023-03-26T08:19:43.168Z,100.00
2023-03-26T08:22:26.289Z,100.00
2023-03-26T08:25:27.681Z,100.00
2023-03-26T08:28:39.107Z,100.00
2023-03-26T08:31:07.997Z,100.00
2023-03-26T08:33:38.279Z,100.00
2023-03-26T08:36:05.895Z,100.00
2023-03-26T08:38:32.416Z,100.00
2023-03-26T08:41:11.268Z,100.00
2023-03-26T08:43:59.215Z,100.00
2023-03-26T08:46:50.450Z,100.00
2023-03-26T08:49:54.389Z,100.00
2023-03-26T08:52:33.023Z,100.00
2023-03-26T08:55:28.328Z,100.00
2023-03-26T08:58:19.271Z,100.00
2023-03-26T09:01:27.720Z,100.00
2023-03-26T09:04:12.745Z,100.00
2023-03-26T09:06:48.359Z,100.00
2023-03-26T09:09:33.941Z,100.00
2023-03-26T09:12:06.553Z,100.00
2023-03-26T09:15:03.847Z,100.00
2023-03-26T09:18:08.057Z,100.00
2023-03-26T09:20:56.659Z,100.00
2023-03-26T09:23:52.544Z,100.00
2023-03-26T09:26:39.973Z,100.00
2023-03-26T09:29:22.938Z,100.00
2023-03-26T09:32:17.648Z,100.00
2023-03-26T09:34:56.792Z,100.00
2023-03-26T09:37:56.443Z,100.00
2023-03-26T09:40:38.671Z,100.00
2023-03-26T09:43:55.643Z,100.00
2023-03-26T09:46:40.772Z,100.00
2023-03-26T09:49:15.574Z,100.00
2023-03-26T09:52:01.510Z,100.00
2023-03-26T09:54:56.010Z,100.00
2023-03-26T09:57:53.537Z,100.00
2023-03-26T10:00:33.381Z,100.00
2023-03-26T10:03:17.467Z,100.00
2023-03-26T10:05:50.068Z,100.00
2023-03-26T10:08:16.628Z,100.00
2023-03-26T10:10:57.591Z,100.00
2023-03-26T10:13:52.139Z,100.00
2023-03-26T10:16:41.893Z,100.00
2023-03-26T10:19:16.766Z,100.00
2023-03-26T10:21:54.023Z,100.00
2023-03-26T10:25:10.927Z,100.00
2023-03-26T10:28:05.733Z,100.00
2023-03-26T10:30:43.584Z,100.00
2023-03-26T10:33:59.020Z,100.00
2023-03-26T10:36:43.424Z,100.00
2023-03-26T10:39:47.708Z,100.00
2023-03-26T10:42:31.518Z,100.00
2023-03-26T10:45:07.700Z,100.00
2023-03-26T10:47:55.292Z,100.00
2023-03-26T10:50:48.809Z,100.00
2023-03-26T10:53:31.132Z,100.00
2023-03-26T10:56:17.016Z,100.00
2023-03-26T10:58:49.482Z,100.00
2023-03-26T11:01:43.035Z,100.00
2023-03-26T11:04:24.421Z,100.00
2023-03-26T11:07:19.081Z,100.00
2023-03-26T11:10:03.333Z,100.00
2023-03-26T11:12:56.123Z,100.00
2023-03-26T11:15:53.374Z,100.00
2023-03-26T11:18:36.282Z,100.00
2023-03-26T11:21:19.090Z,100.00
2023-03-26T11:24:04.530Z,100.00
2023-03-26T11:27:14.902Z,100.00
2023-03-26T11:29:51.845Z,100.00
2023-03-26T11:32:27.303Z,100.00
2023-03-26T11:35:14.231Z,100.00
2023-03-26T11:37:43.704Z,100.00
2023-03-26T11:40:43.638Z,100.00
2023-03-26T11:43:13.432Z,100.00
2023-03-26T11:45:45.004Z,100.00
2023-03-26T11:48:22.601Z,100.00
2023-03-26T11:50:53.909Z,100.00
2023-03-26T11:53:31.986Z,100.00
2023-03-26T11:56:14.964Z,100.00
2023-03-26T11:58:54.828Z,100.00
2023-03-26T12:01:32.624Z,100.00
2023-03-26T12:04:25.117Z,100.00
2023-03-26T12:06:51.697Z,100.00
2023-03-26T12:09:19.915Z,100.00
2023-03-26T12:11:48.689Z,100.00
2023-03-26T12:14:21.834Z,100.00
2023-03-26T12:17:07.469Z,100.00
2023-03-26T12:19:45.408Z,100.00
2023-03-26T12:22:43.439Z,100.00
2023-03-26T12:25:16.763Z,100.00
2023-03-26T12:27:58.824Z,100.00
2023-03-26T12:30:31.437Z,99.21
2023-03-26T12:33:03.920Z,98.52
2023-03-26T12:35:35.330Z,98.26
2023-03-26T12:38:17.073Z,97.43
2023-03-26T12:40:45.094Z,96.95
2023-03-26T12:44:55.666Z,94.99
2023-03-26T12:47:56.147Z,94.49
2023-03-26T12:49:14.482Z,93.56
2023-03-26T12:51:43.911Z,92.95
2023-03-26T12:54:28.786Z,92.53
2023-03-26T12:57:20.492Z,92.77
2023-03-26T13:00:21.337Z,91.93
2023-03-26T13:03:00.128Z,92.00
2023-03-26T13:05:36.430Z,91.27
2023-03-26T13:08:39.560Z,89.12
2023-03-26T13:11:30.523Z,89.43
2023-03-26T13:14:14.876Z,88.25
2023-03-26T13:16:46.610Z,86.18
2023-03-26T13:19:23.682Z,85.18
2023-03-26T13:24:51.240Z,86.24
2023-03-26T13:27:30.450Z,84.76
2023-03-26T13:30:07.564Z,84.68
2023-03-26T13:32:49.633Z,83.45
2023-03-26T13:35:20.353Z,85.10
2023-03-26T13:38:00.414Z,83.62
2023-03-26T13:40:29.810Z,82.45
2023-03-26T13:43:22.217Z,83.41
2023-03-26T13:46:05.384Z,82.80
2023-03-26T13:48:42.727Z,80.74
2023-03-26T13:51:48.405Z,80.11
2023-03-26T13:54:23.980Z,79.17
2023-03-26T13:57:13.917Z,80.51
2023-03-26T13:59:47.609Z,77.75
2023-03-26T14:02:28.050Z,79.20
2023-03-26T14:05:02.074Z,78.06
2023-03-26T14:07:40.620Z,79.67
2023-03-26T14:10:10.701Z,80.53
2023-03-26T14:12:55.819Z,78.87
2023-03-26T14:15:29.421Z,78.63
2023-03-26T14:18:06.119Z,79.61
2023-03-26T14:21:26.608Z,77.72
2023-03-26T14:24:11.858Z,78.70
2023-03-26T14:26:58.633Z,78.18
2023-03-26T14:29:56.722Z,76.95
2023-03-26T14:32:33.439Z,77.06
2023-03-26T14:35:20.371Z,76.79
2023-03-26T14:37:58.767Z,77.32
2023-03-26T14:40:46.789Z,76.33
2023-03-26T14:44:10.981Z,76.23
2023-03-26T14:46:52.331Z,76.07
2023-03-26T14:49:36.870Z,75.85
2023-03-26T14:52:31.534Z,75.66
2023-03-26T14:55:03.702Z,74.25
2023-03-26T14:58:03.907Z,75.12
2023-03-26T15:00:38.962Z,74.02
2023-03-26T15:03:39.448Z,75.53
2023-03-26T15:06:38.247Z,74.43
2023-03-26T15:09:25.874Z,73.87
2023-03-26T15:12:12.309Z,75.42
2023-03-26T15:15:26.263Z,74.72
2023-03-26T15:18:11.810Z,75.54
2023-03-26T15:21:11.407Z,73.52
2023-03-26T15:23:57.933Z,74.35
2023-03-26T15:26:46.529Z,72.63
2023-03-26T15:29:31.973Z,71.44
2023-03-26T15:32:34.252Z,71.30
2023-03-26T15:35:09.838Z,71.18
2023-03-26T15:37:59.594Z,71.16
2023-03-26T15:40:36.504Z,70.59
2023-03-26T15:43:14.813Z,70.34
2023-03-26T15:46:26.560Z,70.87
2023-03-26T15:49:03.693Z,71.22
2023-03-26T15:52:07.923Z,70.42
2023-03-26T15:55:16.077Z,71.37
2023-03-26T15:57:57.027Z,71.22
2023-03-26T16:00:26.472Z,70.69
2023-03-26T16:02:53.963Z,70.00
2023-03-26T16:05:24.212Z,71.02
2023-03-26T16:08:20.483Z,71.25
2023-03-26T16:11:00.377Z,71.23
2023-03-26T16:13:33.527Z,70.17
2023-03-26T16:16:03.349Z,70.13
2023-03-26T16:18:41.101Z,69.38
2023-03-26T16:21:31.855Z,68.60
2023-03-26T16:24:02.177Z,69.19
2023-03-26T16:26:31.490Z,70.36
2023-03-26T16:29:18.485Z,69.50
2023-03-26T16:32:13.814Z,68.20
2023-03-26T16:35:02.002Z,68.85
2023-03-26T16:37:32.016Z,68.05
2023-03-26T16:40:20.904Z,67.59
2023-03-26T16:43:00.313Z,67.85
2023-03-26T16:45:49.520Z,67.64
2023-03-26T16:48:25.306Z,67.37
2023-03-26T16:51:11.601Z,67.53
2023-03-26T16:53:41.650Z,67.42
2023-03-26T16:56:10.885Z,66.32
2023-03-26T16:58:56.292Z,66.78
2023-03-26T17:01:22.926Z,65.49
2023-03-26T17:04:12.945Z,66.63
2023-03-26T17:06:48.249Z,65.49
2023-03-26T17:09:28.419Z,65.12
2023-03-26T17:12:03.086Z,66.17
2023-03-26T17:14:48.948Z,66.03
2023-03-26T17:17:37.434Z,64.82
2023-03-26T17:20:11.708Z,64.96
2023-03-26T17:23:10.885Z,64.07
2023-03-26T17:25:52.506Z,64.13
2023-03-26T17:28:25.080Z,63.66
2023-03-26T17:31:03.277Z,63.85
2023-03-26T17:33:38.763Z,64.22
2023-03-26T17:36:11.444Z,65.15
2023-03-26T17:38:45.474Z,64.95
2023-03-26T17:41:31.833Z,66.19
2023-03-26T17:43:58.379Z,67.38
2023-03-26T17:46:46.524Z,67.15
2023-03-26T17:49:22.190Z,65.85
2023-03-26T17:51:57.936Z,66.19
2023-03-26T17:54:41.340Z,65.56
2023-03-26T17:57:16.664Z,65.53
2023-03-26T17:59:45.091Z,64.69
2023-03-26T18:02:33.082Z,65.49
2023-03-26T18:05:01.924Z,65.55
2023-03-26T18:08:10.215Z,65.47
2023-03-26T18:10:51.579Z,65.85
2023-03-26T18:13:45.300Z,65.48
2023-03-26T18:16:45.694Z,65.44
2023-03-26T18:19:19.407Z,65.42
2023-03-26T18:21:50.314Z,65.54
2023-03-26T18:24:25.177Z,65.42
2023-03-26T18:27:05.132Z,65.37
2023-03-26T18:29:35.834Z,65.23
2023-03-26T18:32:22.209Z,65.39
2023-03-26T18:34:53.727Z,65.52
2023-03-26T18:37:24.186Z,65.50
2023-03-26T18:40:02.430Z,65.98
2023-03-26T18:42:31.721Z,66.58
2023-03-26T18:45:04.672Z,66.22
2023-03-26T18:47:31.974Z,66.24
2023-03-26T18:49:59.985Z,66.63
2023-03-26T18:52:29.366Z,66.77
2023-03-26T18:54:59.000Z,66.88
2023-03-26T18:57:28.422Z,66.75
2023-03-26T19:00:10.022Z,67.15
2023-03-26T19:02:37.853Z,67.42
2023-03-26T19:05:04.936Z,67.89
2023-03-26T19:07:31.696Z,67.95
2023-03-26T19:10:01.332Z,68.95
2023-03-26T19:12:32.493Z,69.21
2023-03-26T19:15:09.044Z,70.22
2023-03-26T19:17:41.343Z,70.48
2023-03-26T19:20:16.486Z,70.53
2023-03-26T19:22:44.696Z,70.34
2023-03-26T19:25:28.072Z,70.35
2023-03-26T19:27:55.005Z,71.18
2023-03-26T19:30:31.759Z,71.29
2023-03-26T19:33:13.875Z,71.20
2023-03-26T19:35:42.215Z,71.42
2023-03-26T19:38:22.690Z,71.69
2023-03-26T19:40:51.974Z,71.74
2023-03-26T19:43:19.478Z,71.79
2023-03-26T19:46:00.399Z,72.22
2023-03-26T19:48:45.507Z,71.87
2023-03-26T19:51:20.255Z,71.70
2023-03-26T19:53:58.210Z,71.27
2023-03-26T19:56:24.756Z,71.07
2023-03-26T19:58:51.335Z,71.59
2023-03-26T20:01:27.206Z,70.76
2023-03-26T20:04:00.969Z,71.07
2023-03-26T20:06:42.557Z,71.55
2023-03-26T20:09:12.612Z,71.72
2023-03-26T20:11:40.368Z,71.63
2023-03-26T20:14:14.526Z,71.68
2023-03-26T20:19:29.536Z,71.27
2023-03-26T20:21:56.421Z,71.04
2023-03-26T20:24:24.726Z,71.45
2023-03-26T20:26:51.141Z,71.81
2023-03-26T20:29:17.810Z,72.07
2023-03-26T20:31:44.428Z,71.18
2023-03-26T20:34:19.870Z,71.36
2023-03-26T20:36:47.253Z,71.67
2023-03-26T20:39:14.221Z,72.00
2023-03-26T20:41:45.602Z,71.95
2023-03-26T20:44:15.334Z,72.99
2023-03-26T20:46:43.353Z,73.32
2023-03-26T20:49:10.829Z,72.95
2023-03-26T20:51:38.438Z,73.72
2023-03-26T20:54:17.561Z,73.72
2023-03-26T20:56:45.561Z,72.80
2023-03-26T20:59:17.683Z,73.47
2023-03-26T21:01:44.550Z,73.92
2023-03-26T21:04:11.610Z,74.74
2023-03-26T21:06:38.064Z,73.98
2023-03-26T21:09:05.025Z,74.33
2023-03-26T21:11:55.685Z,74.69
2023-03-26T21:14:27.586Z,74.39
2023-03-26T21:16:54.350Z,75.44
2023-03-26T21:19:21.227Z,76.13
2023-03-26T21:22:29.345Z,76.01
2023-03-26T21:25:24.253Z,76.30
2023-03-26T21:28:09.340Z,75.81
2023-03-26T21:30:36.158Z,76.12
2023-03-26T21:33:05.191Z,75.52
2023-03-26T21:35:32.241Z,76.04
2023-03-26T21:37:58.983Z,76.59
2023-03-26T21:40:26.041Z,75.82
2023-03-26T21:42:54.200Z,76.41
2023-03-26T21:45:21.981Z,76.64
2023-03-26T21:47:49.002Z,77.09
2023-03-26T21:50:21.744Z,77.78
2023-03-26T21:52:48.921Z,77.61
2023-03-26T21:55:20.188Z,77.58
2023-03-26T21:58:05.454Z,77.66
2023-03-26T22:01:12.186Z,78.82
2023-03-26T22:03:54.127Z,79.12
2023-03-26T22:06:48.970Z,79.88
2023-03-26T22:09:18.524Z,79.78
2023-03-26T22:11:47.329Z,79.35
2023-03-26T22:14:14.161Z,79.10
2023-03-26T22:16:41.625Z,79.29
2023-03-26T22:19:08.604Z,78.71
2023-03-26T22:21:35.972Z,78.78
2023-03-26T22:24:04.690Z,78.14
2023-03-26T22:26:31.273Z,78.16
2023-03-26T22:28:58.259Z,79.09
2023-03-26T22:31:26.419Z,78.77
2023-03-26T22:33:54.573Z,78.89
2023-03-26T22:36:23.513Z,79.08
2023-03-26T22:38:53.189Z,79.59
2023-03-26T22:41:19.831Z,79.63
2023-03-26T22:43:46.407Z,80.47
2023-03-26T22:46:13.698Z,80.48
2023-03-26T22:48:40.633Z,80.87
2023-03-26T22:51:10.217Z,81.51
2023-03-26T22:53:37.171Z,81.23
2023-03-26T22:56:04.490Z,81.64
2023-03-26T22:58:32.722Z,82.26
2023-03-26T23:01:08.225Z,82.40
2023-03-26T23:03:35.811Z,82.85
2023-03-26T23:06:06.240Z,82.70
2023-03-26T23:08:33.099Z,83.31
2023-03-26T23:10:59.634Z,83.85
2023-03-26T23:13:26.575Z,83.93
2023-03-26T23:15:55.143Z,83.80
2023-03-26T23:18:22.866Z,84.76
2023-03-26T23:20:59.418Z,83.81
2023-03-26T23:23:28.763Z,84.69
2023-03-26T23:26:00.467Z,84.10
2023-03-26T23:28:30.173Z,85.13
2023-03-26T23:30:56.866Z,84.73
2023-03-26T23:33:26.299Z,85.31
2023-03-26T23:35:57.788Z,85.03
2023-03-26T23:38:25.527Z,85.00
2023-03-26T23:40:57.408Z,84.65
2023-03-26T23:43:25.040Z,84.64
2023-03-26T23:45:52.157Z,85.10
2023-03-26T23:48:24.519Z,84.61
2023-03-26T23:50:52.749Z,84.52
2023-03-26T23:53:31.923Z,85.42
2023-03-26T23:55:58.772Z,85.59
2023-03-26T23:58:29.998Z,85.69
